Decoded Metar for LKPR (PRAGUE in CZECH REPUBLIC) (IATA:PRG) | Meteo·Mobile Aviation Weather
aviador You're here:

LKPR Decoded Metar

PRAGUE in CZECH REPUBLIC
Report Time2019-07-16 22:00:00
UTC Time2019-07-16 22:24:28
Flight Rules vfr VFR
Wind270° at 04 kt
W.Decomp.*RWY 24: 3.5 kt HW 1.9 kt RCW
RWY 30: 3.4 kt HW 2.1 kt LCW
RWY 22: 2.7 kt HW 3.0 kt RCW
Visibility9999 m
Phenomena:N/A
Clouds:N/A
Expected CloudBase > 1,200 ft AGL from Temp-Dew spread
CeilingNone
Temp12°C (ISA -1)
Dew Point09°C (82% RH)
AAT10.3°C
QNH1016 hPa
Density Alt1,181 ft
Elevation1,198 ft
Report Wrong Elevation
Raw Report
LKPR 162200Z 27004KT CAVOK 12/09 Q1016 NOSIG=

Extra information for LKPR:More info

Metar Taf Metar & Taf Last 4 Metars F.Rules Stats Wind Profile Meteogram Temp Stats Airport Information Weather charts Add Link Nearby VenuesMetar ALERT Operation Metar Decoded Social comments